Time;durP1;ratioP1;P1;durP2;ratioP2;P2;SDS_P1;SDS_P2;PMS_P1;PMS_P2;Temp;Humidity;BMP_temperature;BMP_pressure;BME280_temperature;BME280_humidity;BME280_pressure;Samples;Min_cycle;Max_cycle;Signal;HPM_P1;HPM_P2
2022/05/20 00:00:04;;;;;;;4.07;2.20;;;26.20;47.20;;;;;;4920830;28;88369;-68
2022/05/20 00:02:32;;;;;;;2.23;1.97;;;26.20;47.20;;;;;;4903607;28;90531;-67
2022/05/20 00:05:00;;;;;;;2.37;1.77;;;26.20;47.20;;;;;;4905835;28;88383;-66
2022/05/20 00:07:29;;;;;;;5.23;1.90;;;26.20;47.30;;;;;;4914707;28;88649;-67
2022/05/20 00:09:58;;;;;;;3.87;2.27;;;26.20;47.30;;;;;;4941224;28;90970;-67
2022/05/20 00:12:26;;;;;;;3.33;2.17;;;26.20;47.30;;;;;;4923724;28;91688;-68
2022/05/20 00:14:54;;;;;;;3.40;2.13;;;26.20;47.30;;;;;;4924033;28;88352;-68
2022/05/20 00:17:23;;;;;;;4.37;2.10;;;26.20;47.30;;;;;;4926479;28;88517;-67
2022/05/20 00:19:52;;;;;;;1.90;1.67;;;26.20;48.00;;;;;;4943914;28;91606;-67
2022/05/20 00:22:22;;;;;;;4.30;2.10;;;26.20;47.30;;;;;;4925301;28;90111;-67
2022/05/20 00:27:36;;;;;;;5.03;2.07;;;26.10;47.30;;;;;;4938209;28;90130;-67
2022/05/20 00:30:05;;;;;;;2.60;1.60;;;26.20;47.30;;;;;;4923973;28;89178;-67
2022/05/20 00:32:34;;;;;;;2.93;1.70;;;26.10;47.30;;;;;;4924154;28;90104;-67
2022/05/20 00:35:02;;;;;;;5.97;1.83;;;26.20;47.40;;;;;;4924202;28;88364;-67
2022/05/20 00:37:30;;;;;;;2.90;2.10;;;26.20;47.40;;;;;;4926109;28;88524;-67
2022/05/20 00:39:59;;;;;;;2.07;1.40;;;26.20;47.40;;;;;;4930347;28;90878;-67
2022/05/20 00:42:27;;;;;;;3.47;1.73;;;26.10;47.30;;;;;;4943053;28;90094;-67
2022/05/20 00:44:55;;;;;;;3.07;2.23;;;26.10;47.30;;;;;;4943096;28;88570;-67
2022/05/20 00:47:23;;;;;;;1.93;1.33;;;26.10;47.30;;;;;;4930139;28;88564;-67
2022/05/20 00:49:55;;;;;;;3.23;2.00;;;26.10;47.40;;;;;;4942772;28;90752;-67
2022/05/20 00:52:24;;;;;;;1.50;1.40;;;26.20;47.40;;;;;;4935592;28;89043;-67
2022/05/20 00:54:54;;;;;;;2.17;1.97;;;26.10;47.40;;;;;;4925078;28;88465;-67
2022/05/20 00:57:24;;;;;;;1.90;1.47;;;26.10;47.40;;;;;;4923163;28;88365;-67
2022/05/20 00:59:53;;;;;;;8.07;2.00;;;26.10;47.40;;;;;;4924044;28;90209;-66
2022/05/20 01:02:22;;;;;;;3.17;1.43;;;26.10;47.40;;;;;;4923543;28;93039;-67
2022/05/20 01:04:56;;;;;;;2.27;1.37;;;26.10;47.40;;;;;;4923414;28;88353;-67
2022/05/20 01:07:24;;;;;;;2.90;1.40;;;26.10;47.40;;;;;;4924842;28;88636;-67
2022/05/20 01:09:52;;;;;;;2.43;1.80;;;26.10;47.40;;;;;;4941689;28;90136;-67
2022/05/20 01:12:20;;;;;;;5.33;1.30;;;26.10;47.50;;;;;;4923436;28;93047;-67
2022/05/20 01:14:48;;;;;;;4.77;1.70;;;26.00;47.40;;;;;;4923241;28;88822;-67
2022/05/20 01:17:17;;;;;;;3.70;2.10;;;26.00;47.40;;;;;;4924904;28;88441;-67
2022/05/20 01:19:46;;;;;;;2.60;1.77;;;26.00;47.40;;;;;;4913301;28;90152;-67
2022/05/20 01:22:27;;;;;;;1.93;1.40;;;26.00;47.40;;;;;;4942711;28;91544;-67
2022/05/20 01:24:56;;;;;;;4.27;1.53;;;26.00;47.40;;;;;;4932409;28;89967;-67
2022/05/20 01:27:24;;;;;;;2.23;1.50;;;26.00;47.40;;;;;;4905793;28;88645;-67
2022/05/20 01:29:52;;;;;;;2.03;1.20;;;26.00;47.40;;;;;;4942704;28;92533;-67
2022/05/20 01:32:20;;;;;;;4.13;2.50;;;26.00;47.40;;;;;;4941852;28;89055;-67
2022/05/20 01:34:48;;;;;;;2.20;1.50;;;26.00;47.40;;;;;;4930681;28;88810;-67
2022/05/20 01:37:17;;;;;;;3.80;1.70;;;25.90;47.30;;;;;;4923558;28;88641;-67
2022/05/20 01:39:45;;;;;;;3.23;1.53;;;26.00;47.30;;;;;;4923945;28;89531;-67
2022/05/20 01:42:17;;;;;;;2.30;1.63;;;25.90;47.30;;;;;;4922340;28;88660;-67
2022/05/20 01:44:48;;;;;;;2.60;1.73;;;25.90;47.30;;;;;;4922571;28;88878;-67
2022/05/20 01:47:17;;;;;;;3.20;1.53;;;26.00;47.40;;;;;;4922848;28;88533;-67
2022/05/20 01:49:47;;;;;;;4.23;1.27;;;26.00;47.30;;;;;;4941237;28;90977;-67
2022/05/20 01:52:19;;;;;;;1.37;1.10;;;26.00;47.40;;;;;;4942328;28;88775;-67
2022/05/20 01:54:53;;;;;;;2.37;1.70;;;25.90;47.30;;;;;;4928634;28;89727;-67
2022/05/20 01:57:24;;;;;;;4.47;1.70;;;26.00;47.40;;;;;;4934610;28;88583;-67
2022/05/20 01:59:55;;;;;;;1.67;1.50;;;25.90;47.30;;;;;;4926829;28;90010;-67
2022/05/20 02:02:26;;;;;;;2.63;1.60;;;25.90;47.30;;;;;;4928788;28;91116;-66
2022/05/20 02:04:57;;;;;;;6.40;2.47;;;25.90;47.40;;;;;;4928285;28;88415;-66
2022/05/20 02:07:26;;;;;;;4.10;2.10;;;25.90;47.40;;;;;;4922914;28;88569;-67
2022/05/20 02:09:59;;;;;;;6.13;2.70;;;25.90;47.40;;;;;;4935646;28;90971;-67
2022/05/20 02:12:31;;;;;;;6.87;3.50;;;25.90;47.40;;;;;;4936855;28;92860;-67
2022/05/20 02:15:03;;;;;;;8.47;4.13;;;25.90;47.40;;;;;;4925346;28;88971;-67
2022/05/20 02:17:34;;;;;;;7.53;3.97;;;25.90;47.40;;;;;;4922907;28;88474;-67
2022/05/20 02:20:05;;;;;;;7.40;4.17;;;25.90;47.40;;;;;;4922656;28;89512;-68
2022/05/20 02:22:36;;;;;;;7.73;4.93;;;25.90;47.40;;;;;;4923695;28;90010;-67
2022/05/20 02:25:05;;;;;;;8.83;4.90;;;25.90;47.50;;;;;;4921362;28;89467;-67
2022/05/20 02:27:38;;;;;;;12.83;5.97;;;25.60;47.30;;;;;;4923120;28;88414;-66
2022/05/20 02:30:08;;;;;;;10.37;6.33;;;25.90;47.50;;;;;;4922191;28;91054;-66
2022/05/20 02:32:39;;;;;;;16.13;9.07;;;25.80;47.40;;;;;;4921946;28;90213;-66
2022/05/20 02:35:07;;;;;;;16.83;8.90;;;25.80;47.50;;;;;;4923275;28;89942;-67
2022/05/20 02:37:37;;;;;;;18.87;9.57;;;25.90;47.50;;;;;;4920889;28;88666;-66
2022/05/20 02:40:07;;;;;;;22.63;11.50;;;25.90;47.50;;;;;;4920807;28;90534;-66
2022/05/20 02:42:36;;;;;;;27.43;12.50;;;25.90;48.00;;;;;;4921601;28;89776;-67
2022/05/20 02:45:05;;;;;;;25.63;11.83;;;25.90;47.50;;;;;;4919751;28;92172;-67
2022/05/20 02:47:34;;;;;;;24.73;12.90;;;25.90;47.50;;;;;;4921524;28;89222;-67
2022/05/20 02:50:04;;;;;;;22.87;12.37;;;25.80;47.50;;;;;;4922059;28;90646;-67
2022/05/20 02:52:32;;;;;;;27.37;13.27;;;25.80;47.50;;;;;;4935653;28;90070;-67
2022/05/20 02:55:00;;;;;;;29.80;14.13;;;25.80;47.40;;;;;;4926047;28;89308;-67
2022/05/20 02:57:28;;;;;;;27.07;14.37;;;25.90;47.50;;;;;;4940649;28;88441;-66
2022/05/20 03:05:29;;;;;;;23.33;12.80;;;25.80;47.40;;;;;;4920605;28;88263;-67
2022/05/20 03:08:00;;;;;;;26.17;13.47;;;25.80;47.50;;;;;;4919625;28;88529;-67
2022/05/20 03:10:28;;;;;;;25.07;12.83;;;25.80;47.50;;;;;;4921044;28;89656;-67
2022/05/20 03:12:59;;;;;;;29.23;13.67;;;25.80;47.50;;;;;;4920904;28;93188;-66
2022/05/20 03:15:29;;;;;;;24.37;12.47;;;25.80;47.50;;;;;;4921282;28;90135;-66
2022/05/20 03:17:57;;;;;;;28.43;12.97;;;25.80;47.50;;;;;;4908111;28;88623;-67
2022/05/20 03:20:26;;;;;;;21.43;11.83;;;25.80;47.50;;;;;;4919501;28;90682;-67
2022/05/20 03:22:54;;;;;;;26.00;12.77;;;25.80;47.50;;;;;;4909280;28;90387;-67
2022/05/20 03:25:22;;;;;;;19.47;10.83;;;25.80;47.50;;;;;;4909127;28;88556;-66
2022/05/20 03:27:50;;;;;;;22.60;11.83;;;25.80;47.50;;;;;;4907604;28;88611;-67
2022/05/20 03:30:18;;;;;;;24.60;11.87;;;25.80;47.50;;;;;;4912345;28;90593;-67
2022/05/20 03:32:48;;;;;;;22.53;11.60;;;25.70;47.50;;;;;;4910286;28;88462;-67
2022/05/20 03:35:16;;;;;;;23.43;11.50;;;25.70;47.50;;;;;;4909445;28;88897;-67
2022/05/20 03:37:44;;;;;;;21.33;10.87;;;25.70;47.50;;;;;;4914014;28;88498;-66
2022/05/20 03:40:13;;;;;;;20.37;10.63;;;25.70;47.50;;;;;;4908225;28;91317;-66
2022/05/20 03:42:41;;;;;;;23.57;11.60;;;25.70;47.50;;;;;;4903194;28;88966;-67
2022/05/20 03:45:11;;;;;;;22.70;11.50;;;25.70;47.50;;;;;;4900495;28;88586;-66
2022/05/20 03:47:39;;;;;;;22.27;11.90;;;25.70;47.50;;;;;;4906591;28;88561;-67
2022/05/20 03:50:09;;;;;;;24.87;12.07;;;25.70;47.50;;;;;;4901332;28;88843;-68
2022/05/20 03:52:37;;;;;;;17.77;9.60;;;25.70;47.50;;;;;;4908458;28;92102;-67
2022/05/20 03:55:07;;;;;;;17.87;9.83;;;25.70;47.50;;;;;;4922140;28;88477;-66
2022/05/20 03:57:35;;;;;;;18.00;9.40;;;25.70;47.50;;;;;;4907475;28;88369;-67
2022/05/20 04:00:04;;;;;;;20.47;10.27;;;25.70;47.50;;;;;;4901610;28;90526;-67
2022/05/20 04:02:32;;;;;;;18.87;10.33;;;25.70;47.50;;;;;;4917020;28;91164;-67
2022/05/20 04:05:00;;;;;;;19.90;10.20;;;25.70;47.50;;;;;;4918308;28;89826;-67
2022/05/20 04:07:30;;;;;;;15.57;9.10;;;25.70;47.50;;;;;;4918078;28;88671;-65
2022/05/20 04:09:59;;;;;;;16.47;9.60;;;25.70;47.50;;;;;;4902937;28;89581;-65
2022/05/20 04:12:28;;;;;;;22.90;10.97;;;25.70;47.50;;;;;;4901975;28;91869;-65
2022/05/20 04:14:56;;;;;;;17.97;10.60;;;25.70;47.60;;;;;;4903205;28;92297;-65
2022/05/20 04:17:24;;;;;;;15.70;9.10;;;25.70;47.70;;;;;;4910028;28;90755;-65
2022/05/20 04:19:52;;;;;;;19.97;10.10;;;25.70;47.70;;;;;;4907271;28;91149;-65
2022/05/20 04:22:22;;;;;;;19.07;9.27;;;25.70;47.80;;;;;;4899822;28;89005;-65
2022/05/20 04:24:51;;;;;;;18.23;9.43;;;25.80;47.90;;;;;;4934022;28;89681;-65
2022/05/20 04:27:19;;;;;;;17.77;10.27;;;25.80;48.00;;;;;;4935525;28;88647;-65
2022/05/20 04:29:47;;;;;;;18.17;9.67;;;25.80;48.00;;;;;;4938560;28;93044;-64
2022/05/20 04:32:15;;;;;;;17.77;10.87;;;25.80;48.00;;;;;;4928934;28;90195;-65
2022/05/20 04:34:43;;;;;;;23.17;10.97;;;26.00;48.10;;;;;;4919899;28;88522;-65
2022/05/20 04:37:11;;;;;;;20.97;10.50;;;26.10;47.90;;;;;;4932718;28;88571;-65
2022/05/20 04:39:39;;;;;;;17.37;10.63;;;26.30;47.90;;;;;;4925264;28;89492;-65
2022/05/20 04:47:42;;;;;;;15.73;10.67;;;26.50;47.70;;;;;;4937452;28;88561;-65
2022/05/20 04:50:11;;;;;;;18.43;10.50;;;26.50;47.80;;;;;;4923989;28;90708;-65
2022/05/20 04:52:39;;;;;;;16.53;9.43;;;26.40;47.80;;;;;;4922771;28;90282;-65
2022/05/20 04:55:07;;;;;;;17.47;9.13;;;26.40;47.90;;;;;;4923419;28;89240;-65
2022/05/20 04:57:38;;;;;;;17.20;9.63;;;26.40;48.00;;;;;;4940901;28;88600;-65
2022/05/20 05:00:08;;;;;;;16.53;9.60;;;26.40;48.10;;;;;;4943315;28;91761;-65
2022/05/20 05:02:36;;;;;;;15.87;9.07;;;26.40;48.20;;;;;;4932856;28;89227;-65
2022/05/20 05:05:05;;;;;;;19.60;9.63;;;26.40;48.20;;;;;;4940285;28;90077;-66
2022/05/20 05:07:35;;;;;;;18.97;10.13;;;26.40;48.20;;;;;;4926204;28;90366;-66
2022/05/20 05:10:04;;;;;;;16.90;8.70;;;26.40;48.30;;;;;;4935365;28;89724;-66
2022/05/20 05:12:32;;;;;;;13.20;8.53;;;26.40;48.20;;;;;;4932538;28;91202;-66
2022/05/20 05:15:01;;;;;;;20.67;9.60;;;26.40;48.20;;;;;;4923436;28;90296;-66
2022/05/20 05:20:16;;;;;;;16.07;9.20;;;26.50;48.30;;;;;;4942839;28;88527;-66
2022/05/20 05:22:44;;;;;;;15.83;9.00;;;26.60;48.90;;;;;;4916791;28;88348;-66
2022/05/20 05:25:12;;;;;;;13.67;8.50;;;26.60;48.30;;;;;;4920776;28;88549;-66
2022/05/20 05:27:40;;;;;;;13.20;8.50;;;26.60;48.30;;;;;;4923003;28;88743;-66
2022/05/20 05:30:11;;;;;;;14.80;8.53;;;26.60;48.30;;;;;;4922492;28;92037;-64
2022/05/20 05:32:39;;;;;;;12.07;7.57;;;26.60;48.40;;;;;;4921732;28;89541;-64
2022/05/20 05:35:10;;;;;;;13.20;8.17;;;26.60;48.40;;;;;;4942849;28;93031;-65
2022/05/20 05:37:39;;;;;;;16.00;8.37;;;26.60;48.50;;;;;;4941963;28;88668;-65
2022/05/20 05:40:07;;;;;;;11.93;7.07;;;26.70;48.70;;;;;;4904071;28;90966;-65
2022/05/20 05:42:35;;;;;;;14.70;7.77;;;26.70;48.80;;;;;;4914597;28;89567;-65
2022/05/20 05:45:04;;;;;;;13.57;8.17;;;26.60;48.90;;;;;;4936107;28;88417;-65
2022/05/20 05:47:34;;;;;;;11.13;7.13;;;26.60;49.00;;;;;;4941495;28;88560;-65
2022/05/20 05:50:03;;;;;;;10.70;7.00;;;26.60;49.10;;;;;;4942523;28;89565;-65
2022/05/20 05:52:31;;;;;;;10.23;6.30;;;26.60;49.20;;;;;;4930565;28;90826;-65
2022/05/20 05:55:01;;;;;;;15.13;7.43;;;26.60;49.30;;;;;;4924210;28;91331;-65
2022/05/20 05:57:29;;;;;;;10.63;6.67;;;26.60;50.00;;;;;;4923002;28;88543;-65
2022/05/20 05:59:58;;;;;;;11.73;6.57;;;26.60;49.30;;;;;;4922572;28;89427;-66
2022/05/20 06:02:26;;;;;;;9.97;5.83;;;26.70;49.30;;;;;;4922019;28;90166;-66
2022/05/20 06:04:55;;;;;;;9.87;5.63;;;26.70;49.40;;;;;;4923352;28;88406;-66
2022/05/20 06:07:24;;;;;;;10.37;6.27;;;26.70;49.40;;;;;;4936509;28;88465;-66
2022/05/20 06:09:51;;;;;;;8.83;5.83;;;26.70;49.40;;;;;;4927769;28;90865;-66
2022/05/20 06:12:19;;;;;;;8.90;5.37;;;26.70;49.40;;;;;;4921722;28;89397;-66
2022/05/20 06:14:48;;;;;;;8.73;5.60;;;26.70;49.30;;;;;;4922860;28;88275;-66
2022/05/20 06:17:16;;;;;;;12.37;5.90;;;26.80;49.30;;;;;;4935920;28;88420;-66
2022/05/20 06:19:44;;;;;;;9.77;5.47;;;26.80;49.30;;;;;;4942466;28;92537;-66
2022/05/20 06:22:13;;;;;;;8.70;5.20;;;26.80;49.20;;;;;;4927348;28;92915;-69
2022/05/20 06:24:41;;;;;;;7.60;4.67;;;26.80;49.20;;;;;;4930522;28;88457;-69
2022/05/20 06:27:09;;;;;;;9.60;5.27;;;26.80;49.30;;;;;;4929198;28;88385;-69
2022/05/20 06:29:38;;;;;;;11.33;5.40;;;26.80;49.20;;;;;;4922455;28;90529;-69
2022/05/20 06:32:06;;;;;;;7.17;4.13;;;26.80;49.20;;;;;;4922542;28;90946;-69
2022/05/20 06:40:09;;;;;;;8.33;4.63;;;26.80;49.30;;;;;;4931849;28;91094;-70
2022/05/20 06:42:37;;;;;;;8.20;4.63;;;26.80;49.20;;;;;;4922686;28;88946;-70
2022/05/20 06:45:06;;;;;;;9.03;4.83;;;26.70;49.20;;;;;;4922582;28;90102;-70
2022/05/20 06:47:34;;;;;;;5.87;4.00;;;26.70;49.20;;;;;;4931061;28;88476;-70
2022/05/20 06:50:03;;;;;;;8.40;4.10;;;26.70;49.20;;;;;;4925378;28;89824;-69
2022/05/20 06:52:33;;;;;;;7.47;4.23;;;26.70;49.20;;;;;;4913401;28;90726;-70
2022/05/20 06:55:07;;;;;;;6.77;3.47;;;26.80;49.80;;;;;;4941887;28;89800;-70
2022/05/20 06:57:37;;;;;;;7.57;4.10;;;26.80;49.10;;;;;;4925711;28;88525;-70
2022/05/20 07:00:06;;;;;;;5.60;3.57;;;26.80;49.10;;;;;;4931211;28;90024;-70
2022/05/20 07:02:34;;;;;;;6.03;3.93;;;26.90;49.00;;;;;;4941650;28;90595;-70
2022/05/20 07:05:04;;;;;;;7.37;3.13;;;26.90;49.00;;;;;;4931630;28;88468;-67
2022/05/20 07:07:34;;;;;;;6.27;3.73;;;26.90;49.00;;;;;;4926950;28;88468;-67
2022/05/20 07:10:03;;;;;;;6.67;3.47;;;26.90;48.90;;;;;;4921558;28;90549;-66
2022/05/20 07:12:31;;;;;;;5.70;2.83;;;26.90;48.90;;;;;;4902034;28;89190;-67
2022/05/20 07:15:00;;;;;;;6.37;3.20;;;26.90;48.80;;;;;;4916825;28;88418;-67
2022/05/20 07:17:34;;;;;;;5.10;2.87;;;26.90;48.90;;;;;;4922396;28;88300;-67
2022/05/20 07:20:03;;;;;;;4.60;3.20;;;26.90;48.90;;;;;;4921855;28;90111;-66
2022/05/20 07:22:31;;;;;;;6.53;3.50;;;26.90;48.80;;;;;;4923707;28;90523;-67
2022/05/20 07:25:00;;;;;;;4.40;3.37;;;26.90;48.80;;;;;;4940701;28;88305;-67
2022/05/20 07:27:30;;;;;;;5.43;2.70;;;26.90;48.90;;;;;;4942127;28;88476;-67
2022/05/20 07:29:58;;;;;;;4.73;2.70;;;26.90;48.90;;;;;;4928501;28;90633;-67
2022/05/20 07:32:26;;;;;;;3.90;2.50;;;26.90;48.80;;;;;;4921352;28;89936;-67
2022/05/20 07:34:55;;;;;;;3.60;2.40;;;26.90;48.90;;;;;;4921687;28;88354;-67
2022/05/20 07:37:23;;;;;;;5.30;2.90;;;26.90;48.80;;;;;;4921679;28;88386;-67
2022/05/20 07:39:50;;;;;;;3.90;2.57;;;26.90;48.80;;;;;;4920061;28;90165;-67
2022/05/20 07:42:21;;;;;;;3.70;2.33;;;26.90;48.90;;;;;;4921069;28;90440;-67
2022/05/20 07:44:49;;;;;;;4.40;2.10;;;26.90;48.80;;;;;;4921524;28;89446;-68
2022/05/20 07:47:19;;;;;;;5.00;2.20;;;26.90;48.80;;;;;;4921450;28;88463;-67
2022/05/20 07:49:47;;;;;;;4.57;2.60;;;26.90;48.80;;;;;;4920587;28;92538;-67
2022/05/20 07:53:19;;;;;;;2.83;2.13;;;26.90;48.80;;;;;;4920739;28;88979;-67
2022/05/20 07:55:04;;;;;;;3.47;1.93;;;26.90;48.80;;;;;;4920937;28;91499;-66
2022/05/20 07:57:33;;;;;;;3.77;2.10;;;26.90;48.70;;;;;;4921174;28;88610;-66
2022/05/20 08:00:02;;;;;;;4.23;2.00;;;26.90;48.70;;;;;;4931172;28;93494;-66
2022/05/20 08:02:30;;;;;;;3.57;2.20;;;26.90;48.70;;;;;;4940759;28;93358;-66
2022/05/20 08:05:00;;;;;;;4.27;2.20;;;26.90;48.70;;;;;;4914641;28;89883;-66
2022/05/20 08:07:31;;;;;;;3.30;1.90;;;27.00;48.70;;;;;;4901363;28;88464;-66
2022/05/20 08:10:00;;;;;;;2.40;1.47;;;27.00;48.70;;;;;;4917134;28;90871;-66
2022/05/20 08:12:28;;;;;;;3.20;1.90;;;26.90;48.50;;;;;;4920680;28;89528;-66
2022/05/20 08:14:57;;;;;;;2.63;1.77;;;27.00;48.60;;;;;;4920902;28;89114;-66
2022/05/20 08:17:25;;;;;;;2.60;1.57;;;26.90;48.60;;;;;;4921327;28;88530;-66
2022/05/20 08:19:53;;;;;;;4.20;1.73;;;27.00;48.60;;;;;;4920188;28;90996;-66
2022/05/20 08:22:23;;;;;;;2.37;1.60;;;26.90;48.50;;;;;;4921153;28;90159;-66
2022/05/20 08:24:53;;;;;;;3.53;1.53;;;26.90;48.50;;;;;;4924442;28;88588;-67
2022/05/20 08:27:21;;;;;;;2.20;1.40;;;26.90;48.50;;;;;;4924679;28;88509;-65
2022/05/20 08:29:49;;;;;;;3.33;1.43;;;26.90;48.50;;;;;;4923547;28;91169;-66
2022/05/20 08:32:18;;;;;;;1.37;1.20;;;26.90;49.10;;;;;;4924175;28;90125;-67
2022/05/20 08:34:47;;;;;;;2.00;1.40;;;26.90;48.50;;;;;;4924991;28;88644;-67
2022/05/20 08:37:15;;;;;;;5.40;1.77;;;26.90;48.40;;;;;;4925493;28;88140;-67
2022/05/20 08:39:43;;;;;;;4.23;2.27;;;26.90;48.50;;;;;;4924777;28;90763;-67
2022/05/20 08:42:13;;;;;;;2.57;1.80;;;26.90;48.60;;;;;;4923596;28;89069;-67
2022/05/20 08:44:41;;;;;;;2.67;2.00;;;27.00;48.70;;;;;;4924056;28;89260;-66
2022/05/20 08:47:14;;;;;;;3.00;1.80;;;26.90;48.70;;;;;;4925572;28;88683;-67
2022/05/20 08:49:43;;;;;;;2.43;1.50;;;27.00;48.80;;;;;;4923801;28;90659;-66
2022/05/20 08:52:11;;;;;;;3.60;1.77;;;27.00;48.80;;;;;;4924396;28;89055;-66
2022/05/20 08:54:40;;;;;;;3.40;2.23;;;27.00;48.80;;;;;;4923749;28;88941;-66
2022/05/20 08:57:29;;;;;;;3.27;1.23;;;27.00;48.80;;;;;;4923554;28;88629;-66
2022/05/20 08:59:58;;;;;;;1.30;1.20;;;27.00;48.80;;;;;;4923529;28;90675;-66
2022/05/20 09:02:26;;;;;;;9.70;1.80;;;27.00;48.80;;;;;;4923767;28;90071;-66
2022/05/20 09:04:55;;;;;;;2.77;1.17;;;27.00;48.80;;;;;;4923874;28;88835;-66
2022/05/20 09:07:24;;;;;;;3.07;1.40;;;27.00;48.80;;;;;;4922833;28;88658;-66
2022/05/20 09:09:54;;;;;;;3.73;1.17;;;27.00;49.50;;;;;;4923139;28;90746;-68
2022/05/20 09:12:27;;;;;;;3.23;1.30;;;27.00;48.80;;;;;;4921533;28;90396;-66
2022/05/20 09:17:46;;;;;;;2.27;1.57;;;27.10;48.90;;;;;;4922810;28;88696;-66
2022/05/20 09:20:18;;;;;;;3.00;1.70;;;27.10;48.90;;;;;;4923109;28;91405;-66
2022/05/20 09:22:55;;;;;;;3.07;1.37;;;27.10;48.90;;;;;;4922399;28;88783;-66
2022/05/20 09:25:26;;;;;;;3.80;3.40;;;27.10;49.00;;;;;;4922540;28;88926;-66
2022/05/20 09:27:57;;;;;;;5.87;4.77;;;27.20;49.30;;;;;;4922827;28;88583;-66
2022/05/20 09:30:27;;;;;;;6.27;3.97;;;27.20;49.60;;;;;;4923948;28;90726;-66
2022/05/20 09:33:13;;;;;;;4.30;2.90;;;27.30;49.80;;;;;;4923654;28;88471;-66
2022/05/20 09:35:42;;;;;;;8.00;3.03;;;27.30;49.70;;;;;;4922905;28;88429;-66
2022/05/20 09:38:17;;;;;;;2.97;2.50;;;27.30;49.80;;;;;;4922438;28;88633;-67
2022/05/20 09:40:48;;;;;;;3.80;2.17;;;27.30;49.80;;;;;;4922939;28;90087;-66
2022/05/20 09:43:23;;;;;;;4.00;2.57;;;27.30;49.80;;;;;;4923248;28;89086;-66
2022/05/20 09:45:51;;;;;;;1.80;1.70;;;27.30;49.80;;;;;;4922979;28;91590;-66
2022/05/20 09:48:22;;;;;;;2.43;2.00;;;27.40;49.80;;;;;;4923219;28;88456;-66
2022/05/20 09:51:04;;;;;;;2.30;1.70;;;27.30;49.70;;;;;;4922042;28;89623;-66
2022/05/20 09:53:36;;;;;;;3.47;1.60;;;27.30;49.70;;;;;;4922805;28;91989;-66
2022/05/20 09:56:18;;;;;;;3.17;1.23;;;27.30;49.60;;;;;;4922357;28;88623;-66
2022/05/20 09:58:59;;;;;;;2.00;1.50;;;27.30;49.60;;;;;;4922971;28;88648;-66
2022/05/20 10:01:27;;;;;;;4.00;1.30;;;27.30;49.50;;;;;;4941971;28;91477;-67
2022/05/20 10:03:57;;;;;;;1.90;1.30;;;27.30;49.40;;;;;;4941565;28;89024;-66
2022/05/20 10:06:28;;;;;;;1.70;1.30;;;27.30;49.30;;;;;;4931570;28;90610;-66
2022/05/20 10:09:01;;;;;;;2.67;1.10;;;27.30;49.30;;;;;;4922510;28;89431;-67
2022/05/20 10:11:32;;;;;;;1.03;1.03;;;27.30;49.30;;;;;;4917111;28;91401;-66
2022/05/20 10:14:02;;;;;;;2.67;1.20;;;27.30;49.20;;;;;;4920814;28;88841;-68
2022/05/20 10:16:34;;;;;;;2.40;1.00;;;27.30;49.20;;;;;;4923057;28;89332;-67
2022/05/20 10:19:08;;;;;;;2.07;1.13;;;27.30;49.30;;;;;;4919742;28;88668;-67
2022/05/20 10:21:49;;;;;;;1.27;1.10;;;27.40;49.30;;;;;;4920826;28;90540;-67
2022/05/20 10:24:42;;;;;;;2.13;1.10;;;27.40;49.40;;;;;;4921942;28;90081;-67
2022/05/20 10:27:12;;;;;;;3.40;0.80;;;27.10;49.20;;;;;;4921996;28;89107;-66
2022/05/20 10:32:35;;;;;;;1.37;0.80;;;27.40;49.40;;;;;;4921731;28;89498;-67
2022/05/20 10:35:06;;;;;;;4.20;1.53;;;27.40;49.40;;;;;;4921280;28;89697;-66
2022/05/20 10:37:43;;;;;;;1.53;1.43;;;27.40;49.30;;;;;;4931822;28;88650;-66
2022/05/20 10:40:29;;;;;;;2.70;1.30;;;27.30;49.20;;;;;;4931010;28;88436;-66
2022/05/20 10:43:08;;;;;;;2.73;1.80;;;27.20;48.80;;;;;;4932593;28;89177;-67
2022/05/20 10:48:56;;;;;;;4.20;1.87;;;27.20;48.70;;;;;;4922281;28;89364;-66
2022/05/20 10:51:33;;;;;;;4.90;2.10;;;27.00;48.40;;;;;;4919424;28;88580;-66
2022/05/20 10:54:19;;;;;;;3.53;2.20;;;26.90;48.20;;;;;;4917109;28;90125;-66
2022/05/20 10:56:58;;;;;;;4.37;1.97;;;26.70;47.90;;;;;;4924837;28;89535;-66
2022/05/20 10:59:36;;;;;;;4.07;2.17;;;26.60;47.70;;;;;;4922259;28;88553;-66
2022/05/20 11:02:14;;;;;;;5.33;2.03;;;26.50;47.60;;;;;;4922673;28;88243;-65
2022/05/20 11:05:04;;;;;;;2.80;2.10;;;26.40;47.50;;;;;;4922002;28;93015;-66
2022/05/20 11:07:52;;;;;;;2.97;2.27;;;26.40;47.30;;;;;;4904642;28;90005;-66
2022/05/20 11:10:28;;;;;;;2.43;2.17;;;26.30;47.10;;;;;;4902686;28;90113;-66
2022/05/20 11:13:00;;;;;;;2.57;2.33;;;26.20;46.90;;;;;;4903205;28;88574;-66
2022/05/20 11:15:43;;;;;;;3.23;1.80;;;26.20;46.90;;;;;;4905763;28;91011;-66
2022/05/20 11:18:39;;;;;;;4.23;2.20;;;26.10;46.70;;;;;;4922382;28;93391;-65
2022/05/20 11:21:25;;;;;;;1.97;1.63;;;26.10;46.70;;;;;;4922180;28;88396;-66
2022/05/20 11:24:07;;;;;;;2.93;1.87;;;26.10;46.60;;;;;;4922430;28;88511;-65
2022/05/20 11:26:52;;;;;;;2.13;1.30;;;26.20;46.60;;;;;;4921878;28;90661;-66
2022/05/20 11:29:34;;;;;;;2.43;1.33;;;26.10;46.50;;;;;;4922067;28;91788;-66
2022/05/20 11:32:03;;;;;;;2.00;1.20;;;26.20;46.50;;;;;;4922096;28;89685;-66
2022/05/20 11:34:55;;;;;;;3.93;1.40;;;26.30;47.10;;;;;;4921782;28;88728;-66
2022/05/20 11:37:37;;;;;;;2.60;1.90;;;26.30;46.40;;;;;;4902832;28;90608;-66
2022/05/20 11:40:20;;;;;;;2.23;1.77;;;26.30;46.30;;;;;;4902676;28;89193;-66
2022/05/20 11:43:03;;;;;;;2.20;1.67;;;26.30;46.90;;;;;;4902428;28;88346;-66
2022/05/20 11:45:34;;;;;;;2.80;1.80;;;26.30;46.20;;;;;;4907528;28;88302;-66
2022/05/20 11:48:12;;;;;;;3.93;2.07;;;26.30;46.90;;;;;;4921721;28;90629;-66
2022/05/20 11:51:11;;;;;;;1.77;1.60;;;26.20;46.20;;;;;;4921345;28;89162;-66
2022/05/20 11:53:43;;;;;;;3.93;1.47;;;26.10;46.30;;;;;;4921372;28;88394;-65
2022/05/20 11:56:16;;;;;;;2.30;1.50;;;26.20;46.30;;;;;;4921385;28;88574;-65
2022/05/20 11:58:49;;;;;;;3.47;1.23;;;26.20;46.40;;;;;;4923458;28;90735;-65
2022/05/20 12:01:17;;;;;;;1.63;1.07;;;26.30;46.50;;;;;;4924780;28;90004;-65
2022/05/20 12:06:30;;;;;;;2.23;1.30;;;26.40;46.60;;;;;;4914435;28;88463;-66
2022/05/20 12:09:01;;;;;;;3.20;1.63;;;26.40;46.50;;;;;;4924384;28;90776;-66
2022/05/20 12:11:30;;;;;;;2.90;2.00;;;26.40;46.60;;;;;;4924780;28;89531;-66
2022/05/20 12:14:02;;;;;;;5.53;1.60;;;26.40;46.60;;;;;;4924659;28;88503;-66
2022/05/20 12:16:30;;;;;;;3.73;1.60;;;26.40;46.80;;;;;;4924345;28;88517;-65
2022/05/20 12:24:36;;;;;;;2.97;1.30;;;26.40;47.00;;;;;;4924409;28;88868;-66
2022/05/20 12:27:05;;;;;;;3.23;1.63;;;26.40;47.10;;;;;;4924320;28;88517;-66
2022/05/20 12:30:09;;;;;;;2.67;1.60;;;26.40;47.30;;;;;;4924757;28;90171;-65
2022/05/20 12:32:47;;;;;;;3.70;1.87;;;26.40;47.40;;;;;;4924828;28;88759;-65
2022/05/20 12:35:21;;;;;;;7.23;2.47;;;26.30;47.40;;;;;;4923975;28;89766;-65
2022/05/20 12:38:23;;;;;;;4.13;1.93;;;26.40;47.60;;;;;;4924942;28;88592;-65
2022/05/20 12:40:58;;;;;;;3.40;1.90;;;26.30;47.60;;;;;;4923860;28;90638;-65
2022/05/20 12:43:56;;;;;;;3.23;2.20;;;26.30;47.80;;;;;;4923331;28;90082;-65
2022/05/20 12:47:04;;;;;;;3.93;2.43;;;26.30;47.80;;;;;;4924368;28;91127;-66
2022/05/20 12:49:38;;;;;;;3.37;2.63;;;26.30;47.90;;;;;;4924460;28;88608;-66
2022/05/20 12:52:10;;;;;;;7.37;2.00;;;26.20;48.00;;;;;;4923483;28;90653;-65
2022/05/20 12:54:40;;;;;;;3.17;2.13;;;26.20;48.20;;;;;;4922700;28;89518;-66
2022/05/20 12:57:09;;;;;;;4.77;2.77;;;26.10;48.20;;;;;;4923919;28;89911;-66
2022/05/20 12:59:37;;;;;;;4.33;1.87;;;26.10;48.30;;;;;;4924217;28;88414;-66
2022/05/20 13:02:13;;;;;;;3.67;2.53;;;26.20;48.30;;;;;;4923861;28;90120;-65
2022/05/20 13:04:50;;;;;;;3.63;1.80;;;26.10;48.30;;;;;;4922959;28;89232;-66
2022/05/20 13:07:18;;;;;;;2.27;1.67;;;26.20;48.40;;;;;;4923090;28;89170;-65
2022/05/20 13:09:47;;;;;;;3.60;1.80;;;26.20;48.40;;;;;;4923504;28;88408;-65
2022/05/20 13:12:22;;;;;;;2.27;1.60;;;26.20;48.40;;;;;;4923877;28;91060;-65
2022/05/20 13:14:59;;;;;;;3.17;1.63;;;26.20;48.40;;;;;;4923190;28;93125;-66
2022/05/20 13:17:29;;;;;;;2.20;1.97;;;26.20;48.40;;;;;;4923580;28;88752;-65
2022/05/20 13:19:59;;;;;;;2.70;1.80;;;26.20;48.40;;;;;;4923877;28;88288;-65
2022/05/20 13:22:28;;;;;;;2.43;2.00;;;26.20;48.50;;;;;;4923890;28;90054;-65
2022/05/20 13:24:58;;;;;;;4.83;2.47;;;26.20;48.50;;;;;;4904739;28;88923;-65
2022/05/20 13:27:26;;;;;;;4.10;2.63;;;26.20;49.20;;;;;;4904096;28;88937;-65
2022/05/20 13:29:54;;;;;;;5.13;2.83;;;26.20;48.60;;;;;;4904495;28;88469;-66
2022/05/20 13:32:34;;;;;;;3.40;2.60;;;26.20;48.70;;;;;;4904469;28;90593;-65
2022/05/20 13:35:03;;;;;;;3.93;2.70;;;26.10;48.70;;;;;;4904243;28;90152;-65
2022/05/20 13:37:33;;;;;;;4.60;2.70;;;26.10;48.70;;;;;;4904507;28;88922;-66
2022/05/20 13:40:09;;;;;;;6.97;2.90;;;26.10;48.70;;;;;;4934925;28;88435;-66
2022/05/20 13:42:37;;;;;;;5.30;3.07;;;26.00;48.80;;;;;;4906843;28;90192;-66